sensor_id;sensor_type;location;lat;lon;timestamp;temperature;humidity
38860;DHT22;24609;48.316;16.174;2022-08-19T00:00:46;17.10;99.90
38860;DHT22;24609;48.316;16.174;2022-08-19T00:03:11;17.00;99.90
38860;DHT22;24609;48.316;16.174;2022-08-19T00:05:37;17.10;99.90
38860;DHT22;24609;48.316;16.174;2022-08-19T00:08:03;17.10;99.90
38860;DHT22;24609;48.316;16.174;2022-08-19T00:10:29;17.10;99.90
38860;DHT22;24609;48.316;16.174;2022-08-19T00:12:55;17.10;99.90
38860;DHT22;24609;48.316;16.174;2022-08-19T00:15:22;17.00;99.90
38860;DHT22;24609;48.316;16.174;2022-08-19T00:17:48;16.90;99.90
38860;DHT22;24609;48.316;16.174;2022-08-19T00:20:17;16.60;99.90
38860;DHT22;24609;48.316;16.174;2022-08-19T00:22:44;16.50;99.90
38860;DHT22;24609;48.316;16.174;2022-08-19T00:25:10;16.40;99.90
38860;DHT22;24609;48.316;16.174;2022-08-19T00:27:36;16.40;99.90
38860;DHT22;24609;48.316;16.174;2022-08-19T00:30:04;16.40;99.90
38860;DHT22;24609;48.316;16.174;2022-08-19T00:32:30;16.50;99.90
38860;DHT22;24609;48.316;16.174;2022-08-19T00:34:55;16.50;99.90
38860;DHT22;24609;48.316;16.174;2022-08-19T00:37:23;16.60;99.90
38860;DHT22;24609;48.316;16.174;2022-08-19T00:39:49;16.60;99.90
38860;DHT22;24609;48.316;16.174;2022-08-19T00:42:18;16.60;99.90
38860;DHT22;24609;48.316;16.174;2022-08-19T00:44:44;16.50;99.90
38860;DHT22;24609;48.316;16.174;2022-08-19T00:47:10;16.60;99.90
38860;DHT22;24609;48.316;16.174;2022-08-19T00:52:14;16.80;99.90
38860;DHT22;24609;48.316;16.174;2022-08-19T00:54:41;16.70;99.90
38860;DHT22;24609;48.316;16.174;2022-08-19T00:57:10;16.60;99.90
38860;DHT22;24609;48.316;16.174;2022-08-19T00:59:42;16.40;99.90
38860;DHT22;24609;48.316;16.174;2022-08-19T01:02:11;16.30;99.90
38860;DHT22;24609;48.316;16.174;2022-08-19T01:04:37;16.30;99.90
38860;DHT22;24609;48.316;16.174;2022-08-19T01:07:03;16.40;99.90
38860;DHT22;24609;48.316;16.174;2022-08-19T01:09:29;16.50;99.90
38860;DHT22;24609;48.316;16.174;2022-08-19T01:11:56;16.50;99.90
38860;DHT22;24609;48.316;16.174;2022-08-19T01:14:22;16.60;99.90
38860;DHT22;24609;48.316;16.174;2022-08-19T01:16:50;16.70;99.90
38860;DHT22;24609;48.316;16.174;2022-08-19T01:19:28;16.80;99.90
38860;DHT22;24609;48.316;16.174;2022-08-19T01:24:43;16.80;99.90
38860;DHT22;24609;48.316;16.174;2022-08-19T01:27:09;16.80;99.90
38860;DHT22;24609;48.316;16.174;2022-08-19T01:29:38;16.80;99.90
38860;DHT22;24609;48.316;16.174;2022-08-19T01:32:05;16.70;99.90
38860;DHT22;24609;48.316;16.174;2022-08-19T01:34:31;16.70;99.90
38860;DHT22;24609;48.316;16.174;2022-08-19T01:37:00;16.70;99.90
38860;DHT22;24609;48.316;16.174;2022-08-19T01:39:30;16.70;99.90
38860;DHT22;24609;48.316;16.174;2022-08-19T01:41:56;16.70;99.90
38860;DHT22;24609;48.316;16.174;2022-08-19T01:44:22;16.70;99.90
38860;DHT22;24609;48.316;16.174;2022-08-19T01:46:50;16.70;99.90
38860;DHT22;24609;48.316;16.174;2022-08-19T01:49:21;16.70;99.90
38860;DHT22;24609;48.316;16.174;2022-08-19T01:51:48;16.70;99.90
38860;DHT22;24609;48.316;16.174;2022-08-19T01:54:16;16.50;99.90
38860;DHT22;24609;48.316;16.174;2022-08-19T01:56:43;16.40;99.90
38860;DHT22;24609;48.316;16.174;2022-08-19T01:59:14;16.50;99.90
38860;DHT22;24609;48.316;16.174;2022-08-19T02:01:40;16.60;99.90
38860;DHT22;24609;48.316;16.174;2022-08-19T02:04:06;16.70;99.90
38860;DHT22;24609;48.316;16.174;2022-08-19T02:06:32;16.70;99.90
38860;DHT22;24609;48.316;16.174;2022-08-19T02:08:58;16.70;99.90
38860;DHT22;24609;48.316;16.174;2022-08-19T02:11:30;16.70;99.90
38860;DHT22;24609;48.316;16.174;2022-08-19T02:13:57;16.70;99.90
38860;DHT22;24609;48.316;16.174;2022-08-19T02:16:24;16.70;99.90
38860;DHT22;24609;48.316;16.174;2022-08-19T02:18:50;16.80;99.90
38860;DHT22;24609;48.316;16.174;2022-08-19T02:21:17;16.80;99.90
38860;DHT22;24609;48.316;16.174;2022-08-19T02:23:43;16.90;99.90
38860;DHT22;24609;48.316;16.174;2022-08-19T02:26:09;17.00;99.90
38860;DHT22;24609;48.316;16.174;2022-08-19T02:28:35;17.10;99.90
38860;DHT22;24609;48.316;16.174;2022-08-19T02:31:02;17.20;99.90
38860;DHT22;24609;48.316;16.174;2022-08-19T02:33:28;17.20;99.90
38860;DHT22;24609;48.316;16.174;2022-08-19T02:35:54;17.20;99.90
38860;DHT22;24609;48.316;16.174;2022-08-19T02:38:19;17.30;99.90
38860;DHT22;24609;48.316;16.174;2022-08-19T02:40:54;17.50;99.90
38860;DHT22;24609;48.316;16.174;2022-08-19T02:43:20;17.60;99.90
38860;DHT22;24609;48.316;16.174;2022-08-19T02:45:47;17.60;99.90
38860;DHT22;24609;48.316;16.174;2022-08-19T02:48:15;17.70;99.90
38860;DHT22;24609;48.316;16.174;2022-08-19T02:50:43;17.90;99.90
38860;DHT22;24609;48.316;16.174;2022-08-19T02:53:09;17.80;99.90
38860;DHT22;24609;48.316;16.174;2022-08-19T02:55:43;17.80;99.90
38860;DHT22;24609;48.316;16.174;2022-08-19T02:58:09;17.80;99.90
38860;DHT22;24609;48.316;16.174;2022-08-19T03:00:34;17.80;99.90
38860;DHT22;24609;48.316;16.174;2022-08-19T03:03:00;18.00;99.90
38860;DHT22;24609;48.316;16.174;2022-08-19T03:05:26;18.10;99.90
38860;DHT22;24609;48.316;16.174;2022-08-19T03:07:53;18.30;99.90
38860;DHT22;24609;48.316;16.174;2022-08-19T03:10:18;18.50;99.90
38860;DHT22;24609;48.316;16.174;2022-08-19T03:12:44;18.50;99.90
38860;DHT22;24609;48.316;16.174;2022-08-19T03:15:11;18.60;99.90
38860;DHT22;24609;48.316;16.174;2022-08-19T03:17:37;18.70;99.90
38860;DHT22;24609;48.316;16.174;2022-08-19T03:20:03;18.70;99.90
38860;DHT22;24609;48.316;16.174;2022-08-19T03:22:29;18.70;99.90
38860;DHT22;24609;48.316;16.174;2022-08-19T03:24:55;18.80;99.90
38860;DHT22;24609;48.316;16.174;2022-08-19T03:27:21;18.70;99.90
38860;DHT22;24609;48.316;16.174;2022-08-19T03:29:47;18.70;99.90
38860;DHT22;24609;48.316;16.174;2022-08-19T03:32:13;18.70;99.90
38860;DHT22;24609;48.316;16.174;2022-08-19T03:34:39;18.80;99.90
38860;DHT22;24609;48.316;16.174;2022-08-19T03:37:10;18.70;99.90
38860;DHT22;24609;48.316;16.174;2022-08-19T03:39:38;18.70;99.90
38860;DHT22;24609;48.316;16.174;2022-08-19T03:42:05;18.70;99.90
38860;DHT22;24609;48.316;16.174;2022-08-19T03:44:31;18.70;99.90
38860;DHT22;24609;48.316;16.174;2022-08-19T03:46:59;18.70;99.90
38860;DHT22;24609;48.316;16.174;2022-08-19T03:49:27;18.70;99.90
38860;DHT22;24609;48.316;16.174;2022-08-19T03:51:55;18.70;99.90
38860;DHT22;24609;48.316;16.174;2022-08-19T03:54:24;18.70;99.90
38860;DHT22;24609;48.316;16.174;2022-08-19T03:56:51;18.70;99.90
38860;DHT22;24609;48.316;16.174;2022-08-19T03:59:25;18.90;99.90
38860;DHT22;24609;48.316;16.174;2022-08-19T04:01:54;19.00;99.90
38860;DHT22;24609;48.316;16.174;2022-08-19T04:04:20;19.00;99.90
38860;DHT22;24609;48.316;16.174;2022-08-19T04:06:47;19.00;99.90
38860;DHT22;24609;48.316;16.174;2022-08-19T04:09:13;19.10;99.90
38860;DHT22;24609;48.316;16.174;2022-08-19T04:11:49;19.20;99.90
38860;DHT22;24609;48.316;16.174;2022-08-19T04:14:18;19.20;99.90
38860;DHT22;24609;48.316;16.174;2022-08-19T04:16:45;19.20;99.90
38860;DHT22;24609;48.316;16.174;2022-08-19T04:19:12;19.30;99.90
38860;DHT22;24609;48.316;16.174;2022-08-19T04:21:38;19.40;99.90
38860;DHT22;24609;48.316;16.174;2022-08-19T04:24:04;19.50;99.90
38860;DHT22;24609;48.316;16.174;2022-08-19T04:26:33;19.60;99.90
38860;DHT22;24609;48.316;16.174;2022-08-19T04:29:02;19.80;99.90
38860;DHT22;24609;48.316;16.174;2022-08-19T04:31:30;19.90;99.90
38860;DHT22;24609;48.316;16.174;2022-08-19T04:33:59;20.10;99.90
38860;DHT22;24609;48.316;16.174;2022-08-19T04:36:34;20.30;99.90
38860;DHT22;24609;48.316;16.174;2022-08-19T04:39:05;20.40;99.90
38860;DHT22;24609;48.316;16.174;2022-08-19T04:41:32;20.60;99.90
38860;DHT22;24609;48.316;16.174;2022-08-19T04:44:16;20.80;99.90
38860;DHT22;24609;48.316;16.174;2022-08-19T04:46:46;21.00;99.90
38860;DHT22;24609;48.316;16.174;2022-08-19T04:49:14;21.00;99.90
38860;DHT22;24609;48.316;16.174;2022-08-19T04:51:43;21.10;99.90
38860;DHT22;24609;48.316;16.174;2022-08-19T04:54:09;21.10;99.90
38860;DHT22;24609;48.316;16.174;2022-08-19T04:56:35;21.20;99.90
38860;DHT22;24609;48.316;16.174;2022-08-19T04:59:01;21.20;99.90
38860;DHT22;24609;48.316;16.174;2022-08-19T05:01:30;21.20;99.90
38860;DHT22;24609;48.316;16.174;2022-08-19T05:04:01;21.20;99.90
38860;DHT22;24609;48.316;16.174;2022-08-19T05:06:28;21.30;99.90
38860;DHT22;24609;48.316;16.174;2022-08-19T05:08:56;21.40;99.90
38860;DHT22;24609;48.316;16.174;2022-08-19T05:11:28;21.50;99.90
38860;DHT22;24609;48.316;16.174;2022-08-19T05:13:55;21.40;99.90
38860;DHT22;24609;48.316;16.174;2022-08-19T05:16:22;21.50;99.90
38860;DHT22;24609;48.316;16.174;2022-08-19T05:18:48;21.50;99.90
38860;DHT22;24609;48.316;16.174;2022-08-19T05:21:33;21.40;99.90
38860;DHT22;24609;48.316;16.174;2022-08-19T05:24:19;21.40;99.90
38860;DHT22;24609;48.316;16.174;2022-08-19T05:26:48;21.50;99.90
38860;DHT22;24609;48.316;16.174;2022-08-19T05:29:16;21.50;99.90
38860;DHT22;24609;48.316;16.174;2022-08-19T05:31:42;21.50;99.90
38860;DHT22;24609;48.316;16.174;2022-08-19T05:34:08;21.30;99.90
38860;DHT22;24609;48.316;16.174;2022-08-19T05:36:40;21.10;99.90
38860;DHT22;24609;48.316;16.174;2022-08-19T05:39:19;20.80;99.90
38860;DHT22;24609;48.316;16.174;2022-08-19T05:42:00;20.50;99.90
38860;DHT22;24609;48.316;16.174;2022-08-19T05:44:28;20.50;99.90
38860;DHT22;24609;48.316;16.174;2022-08-19T05:46:58;20.50;99.90
38860;DHT22;24609;48.316;16.174;2022-08-19T05:49:26;20.70;99.90
38860;DHT22;24609;48.316;16.174;2022-08-19T05:51:53;21.00;99.90
38860;DHT22;24609;48.316;16.174;2022-08-19T05:54:20;21.50;99.90
38860;DHT22;24609;48.316;16.174;2022-08-19T05:56:49;21.90;99.90
38860;DHT22;24609;48.316;16.174;2022-08-19T05:59:16;22.30;99.90
38860;DHT22;24609;48.316;16.174;2022-08-19T06:01:45;22.60;58.80
38860;DHT22;24609;48.316;16.174;2022-08-19T06:04:11;22.70;33.10
38860;DHT22;24609;48.316;16.174;2022-08-19T06:06:38;23.00;27.40
38860;DHT22;24609;48.316;16.174;2022-08-19T06:09:06;23.40;3.90
38860;DHT22;24609;48.316;16.174;2022-08-19T06:14:15;23.10;1.00
38860;DHT22;24609;48.316;16.174;2022-08-19T06:16:42;22.90;27.70
38860;DHT22;24609;48.316;16.174;2022-08-19T06:19:19;22.90;19.40
38860;DHT22;24609;48.316;16.174;2022-08-19T06:21:47;22.90;21.60
38860;DHT22;24609;48.316;16.174;2022-08-19T06:24:16;22.90;20.20
38860;DHT22;24609;48.316;16.174;2022-08-19T06:26:48;22.80;29.10
38860;DHT22;24609;48.316;16.174;2022-08-19T06:29:15;22.80;35.60
38860;DHT22;24609;48.316;16.174;2022-08-19T06:31:47;22.80;40.90
38860;DHT22;24609;48.316;16.174;2022-08-19T06:34:15;23.00;11.90
38860;DHT22;24609;48.316;16.174;2022-08-19T06:36:44;23.20;21.40
38860;DHT22;24609;48.316;16.174;2022-08-19T06:39:13;23.50;1.00
38860;DHT22;24609;48.316;16.174;2022-08-19T06:41:42;23.60;1.00
38860;DHT22;24609;48.316;16.174;2022-08-19T06:44:09;23.50;1.00
38860;DHT22;24609;48.316;16.174;2022-08-19T06:46:36;23.30;1.00
38860;DHT22;24609;48.316;16.174;2022-08-19T06:49:03;23.40;6.50
38860;DHT22;24609;48.316;16.174;2022-08-19T06:51:29;23.50;1.00
38860;DHT22;24609;48.316;16.174;2022-08-19T06:53:57;23.60;1.00
38860;DHT22;24609;48.316;16.174;2022-08-19T06:56:26;23.70;1.00
38860;DHT22;24609;48.316;16.174;2022-08-19T06:58:58;24.10;1.00
38860;DHT22;24609;48.316;16.174;2022-08-19T07:01:23;24.50;1.00
38860;DHT22;24609;48.316;16.174;2022-08-19T07:03:49;24.80;99.90
38860;DHT22;24609;48.316;16.174;2022-08-19T07:06:16;25.50;99.90
38860;DHT22;24609;48.316;16.174;2022-08-19T07:08:46;26.30;99.90
38860;DHT22;24609;48.316;16.174;2022-08-19T07:11:14;26.20;1.00
38860;DHT22;24609;48.316;16.174;2022-08-19T07:13:41;26.10;10.50
38860;DHT22;24609;48.316;16.174;2022-08-19T07:16:16;26.20;1.00
38860;DHT22;24609;48.316;16.174;2022-08-19T07:18:42;26.90;99.90
38860;DHT22;24609;48.316;16.174;2022-08-19T07:21:15;26.90;1.00
38860;DHT22;24609;48.316;16.174;2022-08-19T07:23:42;26.80;99.90
38860;DHT22;24609;48.316;16.174;2022-08-19T07:26:18;27.10;1.00
38860;DHT22;24609;48.316;16.174;2022-08-19T07:28:46;27.00;1.00
38860;DHT22;24609;48.316;16.174;2022-08-19T07:31:14;27.20;99.90
38860;DHT22;24609;48.316;16.174;2022-08-19T07:33:40;26.60;99.90
38860;DHT22;24609;48.316;16.174;2022-08-19T07:36:10;26.00;99.90
38860;DHT22;24609;48.316;16.174;2022-08-19T07:38:41;25.90;1.00
38860;DHT22;24609;48.316;16.174;2022-08-19T07:41:13;25.60;99.90
38860;DHT22;24609;48.316;16.174;2022-08-19T07:43:40;25.70;1.00
38860;DHT22;24609;48.316;16.174;2022-08-19T07:46:06;25.80;37.00
38860;DHT22;24609;48.316;16.174;2022-08-19T07:48:32;26.30;1.00
38860;DHT22;24609;48.316;16.174;2022-08-19T07:51:05;26.40;99.90
38860;DHT22;24609;48.316;16.174;2022-08-19T07:53:31;26.10;99.90
38860;DHT22;24609;48.316;16.174;2022-08-19T07:55:58;26.80;99.90
38860;DHT22;24609;48.316;16.174;2022-08-19T07:58:32;27.00;99.90
38860;DHT22;24609;48.316;16.174;2022-08-19T08:00:59;27.20;1.00
38860;DHT22;24609;48.316;16.174;2022-08-19T08:03:25;27.10;21.10
38860;DHT22;24609;48.316;16.174;2022-08-19T08:06:12;26.40;99.90
38860;DHT22;24609;48.316;16.174;2022-08-19T08:08:56;26.80;99.90
38860;DHT22;24609;48.316;16.174;2022-08-19T08:12:02;27.80;99.90
38860;DHT22;24609;48.316;16.174;2022-08-19T08:14:37;29.20;99.90
38860;DHT22;24609;48.316;16.174;2022-08-19T08:17:05;29.70;99.90
38860;DHT22;24609;48.316;16.174;2022-08-19T08:19:32;30.20;99.90
38860;DHT22;24609;48.316;16.174;2022-08-19T08:21:59;30.30;1.00
38860;DHT22;24609;48.316;16.174;2022-08-19T08:24:26;30.30;99.90
38860;DHT22;24609;48.316;16.174;2022-08-19T08:26:53;30.90;99.90
38860;DHT22;24609;48.316;16.174;2022-08-19T08:29:18;29.80;99.90
38860;DHT22;24609;48.316;16.174;2022-08-19T08:31:45;29.60;99.90
38860;DHT22;24609;48.316;16.174;2022-08-19T08:34:12;30.10;1.00
38860;DHT22;24609;48.316;16.174;2022-08-19T08:36:42;29.80;99.90
38860;DHT22;24609;48.316;16.174;2022-08-19T08:39:18;30.30;1.00
38860;DHT22;24609;48.316;16.174;2022-08-19T08:41:58;31.30;1.00
38860;DHT22;24609;48.316;16.174;2022-08-19T08:44:38;31.00;99.90
38860;DHT22;24609;48.316;16.174;2022-08-19T08:47:11;31.00;99.90
38860;DHT22;24609;48.316;16.174;2022-08-19T08:49:55;32.00;99.90
38860;DHT22;24609;48.316;16.174;2022-08-19T08:52:26;31.30;1.00
38860;DHT22;24609;48.316;16.174;2022-08-19T08:54:57;31.20;1.00
38860;DHT22;24609;48.316;16.174;2022-08-19T08:57:29;29.80;99.90
38860;DHT22;24609;48.316;16.174;2022-08-19T09:00:00;30.30;99.90
38860;DHT22;24609;48.316;16.174;2022-08-19T09:02:29;30.10;99.90
38860;DHT22;24609;48.316;16.174;2022-08-19T09:04:55;30.40;99.90
38860;DHT22;24609;48.316;16.174;2022-08-19T09:08:27;30.20;99.90
38860;DHT22;24609;48.316;16.174;2022-08-19T09:13:13;31.40;99.90
38860;DHT22;24609;48.316;16.174;2022-08-19T09:15:47;32.60;1.00
38860;DHT22;24609;48.316;16.174;2022-08-19T09:18:14;34.70;1.00
38860;DHT22;24609;48.316;16.174;2022-08-19T09:20:42;35.90;99.90
38860;DHT22;24609;48.316;16.174;2022-08-19T09:23:08;35.40;99.90
38860;DHT22;24609;48.316;16.174;2022-08-19T09:25:34;35.20;99.90
38860;DHT22;24609;48.316;16.174;2022-08-19T09:28:00;36.30;99.90
38860;DHT22;24609;48.316;16.174;2022-08-19T09:30:31;34.50;62.40
38860;DHT22;24609;48.316;16.174;2022-08-19T09:32:57;34.10;99.90
38860;DHT22;24609;48.316;16.174;2022-08-19T09:35:25;34.80;99.90
38860;DHT22;24609;48.316;16.174;2022-08-19T09:37:56;35.50;25.70
38860;DHT22;24609;48.316;16.174;2022-08-19T09:40:22;38.20;1.00
38860;DHT22;24609;48.316;16.174;2022-08-19T09:42:48;36.50;1.00
38860;DHT22;24609;48.316;16.174;2022-08-19T09:45:15;35.60;1.00
38860;DHT22;24609;48.316;16.174;2022-08-19T09:47:42;34.60;1.00
38860;DHT22;24609;48.316;16.174;2022-08-19T09:50:10;37.10;1.00
38860;DHT22;24609;48.316;16.174;2022-08-19T09:52:36;38.00;1.00
38860;DHT22;24609;48.316;16.174;2022-08-19T09:55:08;38.60;1.00
38860;DHT22;24609;48.316;16.174;2022-08-19T09:57:34;40.70;99.90
38860;DHT22;24609;48.316;16.174;2022-08-19T09:59:59;39.50;99.90
38860;DHT22;24609;48.316;16.174;2022-08-19T10:02:25;40.20;99.90
38860;DHT22;24609;48.316;16.174;2022-08-19T10:04:51;40.30;99.90
38860;DHT22;24609;48.316;16.174;2022-08-19T10:07:36;41.60;99.90
38860;DHT22;24609;48.316;16.174;2022-08-19T10:10:06;41.10;99.90
38860;DHT22;24609;48.316;16.174;2022-08-19T10:12:33;41.20;99.90
38860;DHT22;24609;48.316;16.174;2022-08-19T10:15:00;39.00;99.90
38860;DHT22;24609;48.316;16.174;2022-08-19T10:17:26;35.00;99.90
38860;DHT22;24609;48.316;16.174;2022-08-19T10:19:52;35.40;1.00
38860;DHT22;24609;48.316;16.174;2022-08-19T10:22:18;36.40;1.00
38860;DHT22;24609;48.316;16.174;2022-08-19T10:24:47;35.20;1.00
38860;DHT22;24609;48.316;16.174;2022-08-19T10:27:12;32.70;17.10
38860;DHT22;24609;48.316;16.174;2022-08-19T10:29:40;32.30;1.00
38860;DHT22;24609;48.316;16.174;2022-08-19T10:32:07;32.70;1.00
38860;DHT22;24609;48.316;16.174;2022-08-19T10:34:35;32.50;58.00
38860;DHT22;24609;48.316;16.174;2022-08-19T10:37:03;32.00;99.90
38860;DHT22;24609;48.316;16.174;2022-08-19T10:39:34;32.50;99.90
38860;DHT22;24609;48.316;16.174;2022-08-19T10:42:05;35.40;99.90
38860;DHT22;24609;48.316;16.174;2022-08-19T10:44:33;37.60;1.00
38860;DHT22;24609;48.316;16.174;2022-08-19T10:47:00;37.60;1.00
38860;DHT22;24609;48.316;16.174;2022-08-19T10:49:26;39.10;99.90
38860;DHT22;24609;48.316;16.174;2022-08-19T10:51:52;38.90;99.90
38860;DHT22;24609;48.316;16.174;2022-08-19T10:54:36;36.90;99.90
38860;DHT22;24609;48.316;16.174;2022-08-19T10:57:20;34.80;1.00
38860;DHT22;24609;48.316;16.174;2022-08-19T10:59:49;33.00;99.90
38860;DHT22;24609;48.316;16.174;2022-08-19T11:02:15;31.40;99.90
38860;DHT22;24609;48.316;16.174;2022-08-19T11:04:40;30.50;99.90
38860;DHT22;24609;48.316;16.174;2022-08-19T11:07:07;29.50;81.00
38860;DHT22;24609;48.316;16.174;2022-08-19T11:09:38;28.50;1.00
38860;DHT22;24609;48.316;16.174;2022-08-19T11:12:05;28.20;99.90
38860;DHT22;24609;48.316;16.174;2022-08-19T11:14:31;28.00;99.90
38860;DHT22;24609;48.316;16.174;2022-08-19T11:16:59;28.30;99.90
38860;DHT22;24609;48.316;16.174;2022-08-19T11:19:24;28.70;1.00
38860;DHT22;24609;48.316;16.174;2022-08-19T11:21:51;30.30;1.00
38860;DHT22;24609;48.316;16.174;2022-08-19T11:24:22;32.30;99.90
38860;DHT22;24609;48.316;16.174;2022-08-19T11:26:50;32.50;99.90
38860;DHT22;24609;48.316;16.174;2022-08-19T11:29:18;31.30;99.90
38860;DHT22;24609;48.316;16.174;2022-08-19T11:31:47;30.10;99.90
38860;DHT22;24609;48.316;16.174;2022-08-19T11:34:15;29.40;99.90
38860;DHT22;24609;48.316;16.174;2022-08-19T11:36:43;29.20;99.90
38860;DHT22;24609;48.316;16.174;2022-08-19T11:39:12;29.20;99.90
38860;DHT22;24609;48.316;16.174;2022-08-19T11:41:40;29.00;99.90
38860;DHT22;24609;48.316;16.174;2022-08-19T11:44:06;28.80;1.00
38860;DHT22;24609;48.316;16.174;2022-08-19T11:46:36;29.00;1.00
38860;DHT22;24609;48.316;16.174;2022-08-19T11:49:04;29.50;1.00
38860;DHT22;24609;48.316;16.174;2022-08-19T11:51:30;30.20;99.90
38860;DHT22;24609;48.316;16.174;2022-08-19T11:53:58;30.50;99.90
38860;DHT22;24609;48.316;16.174;2022-08-19T11:56:25;30.20;99.90
38860;DHT22;24609;48.316;16.174;2022-08-19T11:58:51;30.40;99.90
38860;DHT22;24609;48.316;16.174;2022-08-19T12:01:20;30.60;81.50
38860;DHT22;24609;48.316;16.174;2022-08-19T12:03:49;32.90;1.00
38860;DHT22;24609;48.316;16.174;2022-08-19T12:06:22;38.70;1.00
38860;DHT22;24609;48.316;16.174;2022-08-19T12:08:52;40.60;99.90
38860;DHT22;24609;48.316;16.174;2022-08-19T12:11:19;38.00;99.90
38860;DHT22;24609;48.316;16.174;2022-08-19T12:13:44;36.60;17.20
38860;DHT22;24609;48.316;16.174;2022-08-19T12:16:16;36.10;29.00
38860;DHT22;24609;48.316;16.174;2022-08-19T12:18:43;35.60;5.80
38860;DHT22;24609;48.316;16.174;2022-08-19T12:21:29;33.50;16.20
38860;DHT22;24609;48.316;16.174;2022-08-19T12:23:57;32.00;45.10
38860;DHT22;24609;48.316;16.174;2022-08-19T12:26:25;32.00;95.60
38860;DHT22;24609;48.316;16.174;2022-08-19T12:28:51;33.50;99.90
38860;DHT22;24609;48.316;16.174;2022-08-19T12:31:17;37.60;84.60
38860;DHT22;24609;48.316;16.174;2022-08-19T12:33:45;39.00;1.00
38860;DHT22;24609;48.316;16.174;2022-08-19T12:36:12;38.70;1.00
38860;DHT22;24609;48.316;16.174;2022-08-19T12:38:39;39.40;1.00
38860;DHT22;24609;48.316;16.174;2022-08-19T12:41:06;35.20;1.00
38860;DHT22;24609;48.316;16.174;2022-08-19T12:43:36;33.20;1.00
38860;DHT22;24609;48.316;16.174;2022-08-19T12:46:04;31.20;1.00
38860;DHT22;24609;48.316;16.174;2022-08-19T12:48:31;30.50;1.00
38860;DHT22;24609;48.316;16.174;2022-08-19T12:50:56;30.40;1.00
38860;DHT22;24609;48.316;16.174;2022-08-19T12:53:22;29.90;1.00
38860;DHT22;24609;48.316;16.174;2022-08-19T12:55:48;29.80;1.00
38860;DHT22;24609;48.316;16.174;2022-08-19T12:58:21;29.60;1.00
38860;DHT22;24609;48.316;16.174;2022-08-19T13:00:47;29.50;1.00
38860;DHT22;24609;48.316;16.174;2022-08-19T13:03:13;29.40;1.00
38860;DHT22;24609;48.316;16.174;2022-08-19T13:05:39;29.10;1.00
38860;DHT22;24609;48.316;16.174;2022-08-19T13:08:05;28.90;1.10
38860;DHT22;24609;48.316;16.174;2022-08-19T13:10:34;28.70;9.70
38860;DHT22;24609;48.316;16.174;2022-08-19T13:13:02;28.80;30.10
38860;DHT22;24609;48.316;16.174;2022-08-19T13:15:28;28.60;56.60
38860;DHT22;24609;48.316;16.174;2022-08-19T13:17:57;28.50;94.40
38860;DHT22;24609;48.316;16.174;2022-08-19T13:20:24;28.40;99.90
38860;DHT22;24609;48.316;16.174;2022-08-19T13:22:50;28.30;99.90
38860;DHT22;24609;48.316;16.174;2022-08-19T13:25:17;28.30;99.90
38860;DHT22;24609;48.316;16.174;2022-08-19T13:27:45;28.10;99.90
38860;DHT22;24609;48.316;16.174;2022-08-19T13:30:13;27.60;99.90
38860;DHT22;24609;48.316;16.174;2022-08-19T13:32:58;27.20;1.00
38860;DHT22;24609;48.316;16.174;2022-08-19T13:35:40;27.50;1.00
38860;DHT22;24609;48.316;16.174;2022-08-19T13:38:06;27.10;99.90
38860;DHT22;24609;48.316;16.174;2022-08-19T13:40:32;26.90;99.90
38860;DHT22;24609;48.316;16.174;2022-08-19T13:43:02;27.10;1.00
38860;DHT22;24609;48.316;16.174;2022-08-19T13:45:31;27.30;99.90
38860;DHT22;24609;48.316;16.174;2022-08-19T13:48:02;27.40;99.90
38860;DHT22;24609;48.316;16.174;2022-08-19T13:50:32;27.50;99.90
38860;DHT22;24609;48.316;16.174;2022-08-19T13:52:58;27.70;99.90
38860;DHT22;24609;48.316;16.174;2022-08-19T13:55:24;27.10;99.90
38860;DHT22;24609;48.316;16.174;2022-08-19T13:57:55;27.40;99.90
38860;DHT22;24609;48.316;16.174;2022-08-19T14:00:23;27.70;99.90
38860;DHT22;24609;48.316;16.174;2022-08-19T14:02:52;28.00;99.90
38860;DHT22;24609;48.316;16.174;2022-08-19T14:05:19;28.20;99.90
38860;DHT22;24609;48.316;16.174;2022-08-19T14:07:46;28.20;99.90
38860;DHT22;24609;48.316;16.174;2022-08-19T14:10:13;28.30;99.90
38860;DHT22;24609;48.316;16.174;2022-08-19T14:12:39;28.50;70.60
38860;DHT22;24609;48.316;16.174;2022-08-19T14:15:07;28.70;22.40
38860;DHT22;24609;48.316;16.174;2022-08-19T14:17:34;28.70;2.70
38860;DHT22;24609;48.316;16.174;2022-08-19T14:20:02;28.80;9.70
38860;DHT22;24609;48.316;16.174;2022-08-19T14:22:38;29.30;1.00
38860;DHT22;24609;48.316;16.174;2022-08-19T14:25:06;29.80;1.00
38860;DHT22;24609;48.316;16.174;2022-08-19T14:27:33;30.30;1.00
38860;DHT22;24609;48.316;16.174;2022-08-19T14:29:59;30.70;1.00
38860;DHT22;24609;48.316;16.174;2022-08-19T14:32:25;31.20;1.00
38860;DHT22;24609;48.316;16.174;2022-08-19T14:34:53;32.10;99.90
38860;DHT22;24609;48.316;16.174;2022-08-19T14:37:18;31.80;99.90
38860;DHT22;24609;48.316;16.174;2022-08-19T14:39:44;32.40;99.90
38860;DHT22;24609;48.316;16.174;2022-08-19T14:42:11;33.00;99.90
38860;DHT22;24609;48.316;16.174;2022-08-19T14:44:41;33.40;99.90
38860;DHT22;24609;48.316;16.174;2022-08-19T14:47:07;32.20;99.90
38860;DHT22;24609;48.316;16.174;2022-08-19T14:49:33;31.90;99.90
38860;DHT22;24609;48.316;16.174;2022-08-19T14:51:59;31.70;99.90
38860;DHT22;24609;48.316;16.174;2022-08-19T14:54:25;31.80;99.90
38860;DHT22;24609;48.316;16.174;2022-08-19T14:56:51;32.10;99.90
38860;DHT22;24609;48.316;16.174;2022-08-19T14:59:17;31.80;99.90
38860;DHT22;24609;48.316;16.174;2022-08-19T15:01:43;32.50;99.90
38860;DHT22;24609;48.316;16.174;2022-08-19T15:04:09;32.20;94.00
38860;DHT22;24609;48.316;16.174;2022-08-19T15:06:34;31.90;72.80
38860;DHT22;24609;48.316;16.174;2022-08-19T15:09:00;32.00;39.40
38860;DHT22;24609;48.316;16.174;2022-08-19T15:11:27;31.40;27.90
38860;DHT22;24609;48.316;16.174;2022-08-19T15:13:54;30.80;23.00
38860;DHT22;24609;48.316;16.174;2022-08-19T15:16:21;30.50;25.50
38860;DHT22;24609;48.316;16.174;2022-08-19T15:18:51;30.60;30.00
38860;DHT22;24609;48.316;16.174;2022-08-19T15:21:18;30.00;14.70
38860;DHT22;24609;48.316;16.174;2022-08-19T15:23:48;30.10;23.00
38860;DHT22;24609;48.316;16.174;2022-08-19T15:26:15;30.10;18.40
38860;DHT22;24609;48.316;16.174;2022-08-19T15:28:41;30.00;11.50
38860;DHT22;24609;48.316;16.174;2022-08-19T15:31:07;30.00;19.60
38860;DHT22;24609;48.316;16.174;2022-08-19T15:33:35;29.60;2.30
38860;DHT22;24609;48.316;16.174;2022-08-19T15:36:05;29.40;15.30
38860;DHT22;24609;48.316;16.174;2022-08-19T15:38:32;29.10;11.00